Time,TemperatureF,DewpointF,PressureIn,WindDirection,WindDirectionDegrees,WindSpeedMPH,WindSpeedGustMPH,Humidity,HourlyPrecipIn,Conditions,Clouds,dailyrainin,SolarRadiationWatts/m^2,SoftwareType,DateUTC
2013-05-16 00:24:00,71.0,-26.0,-100.00,West,279,18.0,35.0,0,0.00,,,0.00,0.000000,,2013-05-16 10:24:00,
2013-05-16 00:35:00,71.0,-26.0,-100.00,West,279,18.0,35.0,0,0.00,,,0.00,0.000000,,2013-05-16 10:35:00,
2013-05-16 00:45:00,71.0,-26.0,-100.00,West,279,18.0,35.0,0,0.00,,,0.00,0.000000,,2013-05-16 10:45:00,
2013-05-16 00:52:00,70.0,-27.0,-100.00,SE,133,12.0,36.0,0,0.00,,,0.00,0.000000,,2013-05-16 10:52:00,
2013-05-16 01:14:00,70.0,-27.0,-100.00,SE,133,12.0,36.0,0,0.00,,,0.00,0.000000,,2013-05-16 11:14:00,
2013-05-16 01:25:00,70.0,-27.0,-100.00,SE,133,12.0,36.0,0,0.00,,,0.00,0.000000,,2013-05-16 11:25:00,
2013-05-16 01:35:00,70.0,-27.0,-100.00,SE,133,12.0,36.0,0,0.00,,,0.00,0.000000,,2013-05-16 11:35:00,
2013-05-16 01:46:00,70.0,-27.0,-100.00,SE,133,12.0,36.0,0,0.00,,,0.00,0.000000,,2013-05-16 11:46:00,
2013-05-16 01:52:00,70.0,-27.0,-100.00,ESE,104,17.0,41.0,0,0.00,,,0.00,0.000000,,2013-05-16 11:52:00,
2013-05-16 02:13:00,70.0,-27.0,-100.00,ESE,104,17.0,41.0,0,0.00,,,0.00,0.000000,,2013-05-16 12:13:00,
2013-05-16 02:23:00,70.0,-27.0,-100.00,ESE,104,17.0,41.0,0,0.00,,,0.00,0.000000,,2013-05-16 12:23:00,
2013-05-16 02:34:00,70.0,-27.0,-100.00,ESE,104,17.0,41.0,0,0.00,,,0.00,0.000000,,2013-05-16 12:34:00,
2013-05-16 02:45:00,70.0,-27.0,-100.00,ESE,104,17.0,41.0,0,0.00,,,0.00,0.000000,,2013-05-16 12:45:00,
2013-05-16 02:52:00,69.0,-28.0,-100.00,ESE,103,24.0,33.0,0,0.00,,,0.00,0.000000,,2013-05-16 12:52:00,
2013-05-16 03:12:00,69.0,-28.0,-100.00,ESE,103,24.0,33.0,0,0.00,,,0.00,0.000000,,2013-05-16 13:12:00,
2013-05-16 03:26:00,69.0,-28.0,-100.00,ESE,103,24.0,33.0,0,0.00,,,0.00,0.000000,,2013-05-16 13:26:00,
2013-05-16 03:35:00,69.0,-28.0,-100.00,ESE,103,24.0,33.0,0,0.00,,,0.00,0.000000,,2013-05-16 13:35:00,
2013-05-16 03:43:00,69.0,-28.0,-100.00,ESE,103,24.0,33.0,0,0.00,,,0.00,0.000000,,2013-05-16 13:43:00,
2013-05-16 03:52:00,69.0,-28.0,-100.00,SE,134,18.0,35.0,0,0.00,,,0.00,0.000000,,2013-05-16 13:52:00,
2013-05-16 04:15:00,69.0,-28.0,-100.00,SE,134,18.0,35.0,0,0.00,,,0.00,0.000000,,2013-05-16 14:15:00,
2013-05-16 04:23:00,69.0,-28.0,-100.00,SE,134,18.0,35.0,0,0.00,,,0.00,0.000000,,2013-05-16 14:23:00,
2013-05-16 04:37:00,69.0,-28.0,-100.00,SE,134,18.0,35.0,0,0.00,,,0.00,0.000000,,2013-05-16 14:37:00,
2013-05-16 04:47:00,69.0,-28.0,-100.00,SE,134,18.0,35.0,0,0.00,,,0.00,0.000000,,2013-05-16 14:47:00,
2013-05-16 04:52:00,69.0,-28.0,-100.00,NNW,344,11.0,34.0,0,0.00,,,0.00,0.000000,,2013-05-16 14:52:00,
2013-05-16 05:17:00,69.0,-28.0,-100.00,NNW,344,11.0,34.0,0,0.00,,,0.00,0.000000,,2013-05-16 15:17:00,
2013-05-16 05:28:00,69.0,-28.0,-100.00,NNW,344,11.0,34.0,0,0.00,,,0.00,0.000000,,2013-05-16 15:28:00,
2013-05-16 05:40:00,69.0,-28.0,-100.00,NNW,344,11.0,34.0,0,0.00,,,0.00,0.000000,,2013-05-16 15:40:00,
2013-05-16 05:50:00,69.0,-28.0,-100.00,NNW,344,11.0,34.0,0,0.00,,,0.00,0.000000,,2013-05-16 15:50:00,
2013-05-16 05:52:00,69.0,-28.0,-100.00,NW,322,10.0,34.0,0,0.00,,,0.00,0.000000,,2013-05-16 15:52:00,
2013-05-16 06:30:00,69.0,-28.0,-100.00,NW,322,10.0,34.0,0,0.00,,,0.00,0.000000,,2013-05-16 16:30:00,
2013-05-16 06:40:00,69.0,-99.9,-100.00,NW,322,10.0,34.0,0,0.00,,,0.00,0.000000,,2013-05-16 16:40:00,
2013-05-16 06:50:00,69.0,-28.0,-100.00,NW,322,10.0,34.0,0,0.00,,,0.00,0.000000,,2013-05-16 16:50:00,
2013-05-16 06:52:00,70.0,-99.9,-100.00,ESE,113,14.0,29.0,0,0.00,,,0.00,1.000000,,2013-05-16 16:52:00,
2013-05-16 07:30:00,70.0,-27.0,-100.00,ESE,113,14.0,29.0,0,0.00,,,0.00,1.000000,,2013-05-16 17:30:00,
2013-05-16 07:40:00,70.0,-27.0,-100.00,ESE,113,14.0,29.0,0,0.00,,,0.00,1.000000,,2013-05-16 17:40:00,
2013-05-16 07:50:00,70.0,-99.9,-100.00,ESE,113,14.0,29.0,0,0.00,,,0.00,1.000000,,2013-05-16 17:50:00,
2013-05-16 07:52:00,-999.0,-99.9,-100.00,ENE,72,8.0,25.0,0,0.00,,,0.00,131.000000,,2013-05-16 17:52:00,
2013-05-16 08:30:00,-999.0,-99.9,-100.00,ENE,72,8.0,25.0,0,0.00,,,0.00,131.000000,,2013-05-16 18:30:00,
2013-05-16 08:40:00,-999.0,-99.9,-100.00,ENE,72,8.0,25.0,0,0.00,,,0.00,131.000000,,2013-05-16 18:40:00,
2013-05-16 08:50:00,-999.0,-99.9,-100.00,ENE,72,8.0,25.0,0,0.00,,,0.00,131.000000,,2013-05-16 18:50:00,
2013-05-16 08:52:00,75.0,-99.9,-100.00,ENE,76,15.0,23.0,0,0.00,,,0.00,401.000000,,2013-05-16 18:52:00,
2013-05-16 09:30:00,75.0,-24.0,-100.00,ENE,76,15.0,23.0,0,0.00,,,0.00,401.000000,,2013-05-16 19:30:00,
2013-05-16 09:40:00,75.0,-99.9,-100.00,ENE,76,15.0,23.0,0,0.00,,,0.00,401.000000,,2013-05-16 19:40:00,
2013-05-16 09:50:00,-999.0,-99.9,-100.00,ENE,76,15.0,23.0,0,0.00,,,0.00,401.000000,,2013-05-16 19:50:00,
2013-05-16 09:52:00,76.0,-23.0,-100.00,SE,124,20.0,39.0,0,0.00,,,0.00,548.000000,,2013-05-16 19:52:00,
2013-05-16 10:20:00,76.0,-99.9,-100.00,SE,124,20.0,39.0,0,0.00,,,0.00,548.000000,,2013-05-16 20:20:00,
2013-05-16 10:30:00,76.0,-23.0,-100.00,SE,124,20.0,39.0,0,0.00,,,0.00,548.000000,,2013-05-16 20:30:00,
2013-05-16 10:40:00,-999.0,-99.9,-100.00,SE,124,20.0,39.0,0,0.00,,,0.00,548.000000,,2013-05-16 20:40:00,
2013-05-16 10:50:00,76.0,-23.0,-100.00,SE,124,20.0,39.0,0,0.00,,,0.00,548.000000,,2013-05-16 20:50:00,
2013-05-16 10:52:00,-999.0,-99.9,-100.00,ESE,106,23.0,40.0,0,0.00,,,0.00,854.000000,,2013-05-16 20:52:00,
2013-05-16 11:29:00,77.0,-23.0,-100.00,ESE,106,23.0,40.0,0,0.00,,,0.00,854.000000,,2013-05-16 21:29:00,
2013-05-16 11:38:00,77.0,-23.0,-100.00,ESE,106,23.0,40.0,0,0.00,,,0.00,854.000000,,2013-05-16 21:38:00,
2013-05-16 11:50:00,77.0,-99.9,-100.00,ESE,106,23.0,40.0,0,0.00,,,0.00,854.000000,,2013-05-16 21:50:00,
2013-05-16 11:52:00,79.0,-21.0,-100.00,North,9,25.0,43.0,0,0.00,,,0.00,1118.000000,,2013-05-16 21:52:00,
2013-05-16 12:20:00,79.0,-21.0,-100.00,North,9,25.0,43.0,0,0.00,,,0.00,1118.000000,,2013-05-16 22:20:00,
2013-05-16 12:30:00,79.0,-21.0,-100.00,North,9,25.0,43.0,0,0.00,,,0.00,1118.000000,,2013-05-16 22:30:00,
2013-05-16 12:40:00,79.0,-21.0,-100.00,North,9,25.0,43.0,0,0.00,,,0.00,1118.000000,,2013-05-16 22:40:00,
2013-05-16 12:50:00,79.0,-21.0,-100.00,North,9,25.0,43.0,0,0.00,,,0.00,1118.000000,,2013-05-16 22:50:00,
2013-05-16 12:52:00,81.0,-20.0,-100.00,NNW,327,21.0,44.0,0,0.00,,,0.00,1202.000000,,2013-05-16 22:52:00,
2013-05-16 13:16:00,81.0,-20.0,-100.00,NNW,327,21.0,44.0,0,0.00,,,0.00,1202.000000,,2013-05-16 23:16:00,
2013-05-16 13:24:00,81.0,-20.0,-100.00,NNW,327,21.0,44.0,0,0.00,,,0.00,1202.000000,,2013-05-16 23:24:00,
2013-05-16 13:34:00,81.0,-20.0,-100.00,NNW,327,21.0,44.0,0,0.00,,,0.00,1202.000000,,2013-05-16 23:34:00,
2013-05-16 13:45:00,81.0,-20.0,-100.00,NNW,327,21.0,44.0,0,0.00,,,0.00,1202.000000,,2013-05-16 23:45:00,
2013-05-16 13:52:00,77.0,-23.0,-100.00,NE,54,21.0,44.0,0,0.00,,,0.00,1087.000000,,2013-05-16 23:52:00,
2013-05-16 14:13:00,77.0,-23.0,-100.00,NE,54,21.0,44.0,0,0.00,,,0.00,1087.000000,,2013-05-17 00:13:00,
2013-05-16 14:22:00,77.0,-23.0,-100.00,NE,54,21.0,44.0,0,0.00,,,0.00,1087.000000,,2013-05-17 00:22:00,
2013-05-16 14:33:00,77.0,-23.0,-100.00,NE,54,21.0,44.0,0,0.00,,,0.00,1087.000000,,2013-05-17 00:33:00,
2013-05-16 14:43:00,77.0,-23.0,-100.00,NE,54,21.0,44.0,0,0.00,,,0.00,1087.000000,,2013-05-17 00:43:00,
2013-05-16 14:52:00,77.0,-23.0,-100.00,SE,145,22.0,45.0,0,0.00,,,0.00,719.000000,,2013-05-17 00:52:00,
2013-05-16 15:12:00,77.0,-23.0,-100.00,SE,145,22.0,45.0,0,0.00,,,0.00,719.000000,,2013-05-17 01:12:00,
2013-05-16 15:23:00,77.0,-23.0,-100.00,SE,145,22.0,45.0,0,0.00,,,0.00,719.000000,,2013-05-17 01:23:00,
2013-05-16 15:32:00,77.0,-23.0,-100.00,SE,145,22.0,45.0,0,0.00,,,0.00,719.000000,,2013-05-17 01:32:00,
2013-05-16 15:43:00,77.0,-23.0,-100.00,SE,145,22.0,45.0,0,0.00,,,0.00,719.000000,,2013-05-17 01:43:00,
2013-05-16 15:52:00,79.0,-21.0,-100.00,SSW,199,23.0,42.0,0,0.00,,,0.00,946.000000,,2013-05-17 01:52:00,
2013-05-16 16:11:00,79.0,-21.0,-100.00,SSW,199,23.0,42.0,0,0.00,,,0.00,946.000000,,2013-05-17 02:11:00,
2013-05-16 16:21:00,79.0,-21.0,-100.00,SSW,199,23.0,42.0,0,0.00,,,0.00,946.000000,,2013-05-17 02:21:00,
2013-05-16 16:32:00,79.0,-21.0,-100.00,SSW,199,23.0,42.0,0,0.00,,,0.00,946.000000,,2013-05-17 02:32:00,
2013-05-16 16:41:00,79.0,-21.0,-100.00,SSW,199,23.0,42.0,0,0.00,,,0.00,946.000000,,2013-05-17 02:41:00,
2013-05-16 16:52:00,77.0,-23.0,-100.00,SSW,197,24.0,39.0,0,0.00,,,0.00,828.000000,,2013-05-17 02:52:00,
2013-05-16 17:22:00,77.0,-23.0,-100.00,SSW,197,24.0,39.0,0,0.00,,,0.00,828.000000,,2013-05-17 03:22:00,
2013-05-16 17:34:00,77.0,-23.0,-100.00,SSW,197,24.0,39.0,0,0.00,,,0.00,828.000000,,2013-05-17 03:34:00,
2013-05-16 17:43:00,77.0,-23.0,-100.00,SSW,197,24.0,39.0,0,0.00,,,0.00,828.000000,,2013-05-17 03:43:00,
2013-05-16 17:52:00,77.0,-23.0,-100.00,NW,320,23.0,43.0,0,0.00,,,0.00,146.000000,,2013-05-17 03:52:00,
2013-05-16 18:13:00,77.0,-23.0,-100.00,NW,320,23.0,43.0,0,0.00,,,0.00,146.000000,,2013-05-17 04:13:00,
2013-05-16 18:23:00,77.0,-23.0,-100.00,NW,320,23.0,43.0,0,0.00,,,0.00,146.000000,,2013-05-17 04:23:00,
2013-05-16 18:33:00,77.0,-23.0,-100.00,NW,320,23.0,43.0,0,0.00,,,0.00,146.000000,,2013-05-17 04:33:00,
2013-05-16 18:43:00,77.0,-23.0,-100.00,NW,320,23.0,43.0,0,0.00,,,0.00,146.000000,,2013-05-17 04:43:00,
2013-05-16 19:14:00,76.0,-23.0,-100.00,NNW,339,22.0,39.0,0,0.00,,,0.00,161.000000,,2013-05-17 05:14:00,
2013-05-16 19:22:00,76.0,-23.0,-100.00,NNW,339,22.0,39.0,0,0.00,,,0.00,161.000000,,2013-05-17 05:22:00,
2013-05-16 19:32:00,76.0,-23.0,-100.00,NNW,339,22.0,39.0,0,0.00,,,0.00,161.000000,,2013-05-17 05:32:00,
2013-05-16 19:42:00,76.0,-23.0,-100.00,NNW,339,22.0,39.0,0,0.00,,,0.00,161.000000,,2013-05-17 05:42:00,
2013-05-16 19:51:00,76.0,-23.0,-100.00,NNW,339,22.0,39.0,0,0.00,,,0.00,161.000000,,2013-05-17 05:51:00,
2013-05-16 20:21:00,74.0,-25.0,-100.00,ESE,112,21.0,38.0,0,0.00,,,-99.99,50.000000,,2013-05-17 06:21:00,
2013-05-16 20:32:00,74.0,-25.0,-100.00,ESE,112,21.0,38.0,0,0.00,,,-99.99,50.000000,,2013-05-17 06:32:00,
2013-05-16 20:42:00,74.0,-25.0,-100.00,ESE,112,21.0,38.0,0,0.00,,,-99.99,50.000000,,2013-05-17 06:42:00,
2013-05-16 20:51:00,74.0,-25.0,-100.00,ESE,112,21.0,38.0,0,0.00,,,-99.99,50.000000,,2013-05-17 06:51:00,
2013-05-16 20:52:00,73.0,-25.0,-100.00,South,181,20.0,32.0,0,0.00,,,-99.99,0.000000,,2013-05-17 06:52:00,
2013-05-16 21:11:00,73.0,-25.0,-100.00,South,181,20.0,32.0,0,0.00,,,-99.99,0.000000,,2013-05-17 07:11:00,
2013-05-16 21:21:00,73.0,-25.0,-100.00,South,181,20.0,32.0,0,0.00,,,-99.99,0.000000,,2013-05-17 07:21:00,
2013-05-16 21:32:00,73.0,-25.0,-100.00,South,181,20.0,32.0,0,0.00,,,-99.99,0.000000,,2013-05-17 07:32:00,
2013-05-16 21:43:00,73.0,-25.0,-100.00,South,181,20.0,32.0,0,0.00,,,-99.99,0.000000,,2013-05-17 07:43:00,
2013-05-16 22:12:00,71.0,-26.0,-100.00,SE,134,20.0,32.0,0,0.00,,,0.00,0.000000,,2013-05-17 08:12:00,
2013-05-16 22:22:00,71.0,-26.0,-100.00,SE,134,20.0,32.0,0,0.00,,,0.00,0.000000,,2013-05-17 08:22:00,
2013-05-16 22:33:00,71.0,-26.0,-100.00,SE,134,20.0,32.0,0,0.00,,,0.00,0.000000,,2013-05-17 08:33:00,
2013-05-16 22:42:00,71.0,-26.0,-100.00,SE,134,20.0,32.0,0,0.00,,,0.00,0.000000,,2013-05-17 08:42:00,
2013-05-16 22:51:00,71.0,-26.0,-100.00,SE,134,20.0,32.0,0,0.00,,,0.00,0.000000,,2013-05-17 08:51:00,
2013-05-16 22:52:00,71.0,-26.0,-100.00,NNE,33,23.0,33.0,0,0.00,,,0.00,0.000000,,2013-05-17 08:52:00,
2013-05-16 23:12:00,71.0,-26.0,-100.00,NNE,33,23.0,33.0,0,0.00,,,0.00,0.000000,,2013-05-17 09:12:00,
2013-05-16 23:22:00,71.0,-26.0,-100.00,NNE,33,23.0,33.0,0,0.00,,,0.00,0.000000,,2013-05-17 09:22:00,
2013-05-16 23:33:00,71.0,-26.0,-100.00,NNE,33,23.0,33.0,0,0.00,,,0.00,0.000000,,2013-05-17 09:33:00,
2013-05-16 23:42:00,71.0,-26.0,-100.00,NNE,33,23.0,33.0,0,0.00,,,0.00,0.000000,,2013-05-17 09:42:00,
2013-05-16 23:52:00,72.0,-26.0,-100.00,West,267,26.0,37.0,0,0.00,,,0.00,0.000000,,2013-05-17 09:52:00,